createdAt,value
2022-12-31T00:00:39.054Z,99718.38
2022-12-31T00:05:40.436Z,99726.25
2022-12-31T00:10:41.949Z,99729.59
2022-12-31T00:15:44.213Z,99722.72
2022-12-31T00:20:45.557Z,99728.31
2022-12-31T00:25:46.882Z,99724.59
2022-12-31T00:30:48.256Z,99725.81
2022-12-31T00:35:49.599Z,99726.22
2022-12-31T00:40:50.940Z,99711.19
2022-12-31T00:45:52.314Z,99718.91
2022-12-31T00:50:55.150Z,99713.84
2022-12-31T00:56:01.405Z,99725.06
2022-12-31T01:01:26.382Z,99731.09
2022-12-31T01:06:27.952Z,99736.44
2022-12-31T01:11:29.721Z,99737.69
2022-12-31T01:16:38.672Z,99748.28
2022-12-31T01:21:41.260Z,99742.00
2022-12-31T01:26:43.345Z,99754.06
2022-12-31T01:31:44.794Z,99741.13
2022-12-31T01:36:46.331Z,99748.19
2022-12-31T01:41:47.973Z,99749.25
2022-12-31T01:46:58.230Z,99756.72
2022-12-31T01:52:09.022Z,99746.31
2022-12-31T01:57:11.519Z,99748.13
2022-12-31T02:02:15.577Z,99741.44
2022-12-31T02:07:16.962Z,99753.06
2022-12-31T02:12:18.339Z,99747.84
2022-12-31T02:17:37.122Z,99754.84
2022-12-31T02:22:57.898Z,99732.09
2022-12-31T02:28:34.207Z,99738.50
2022-12-31T02:33:41.966Z,99741.94
2022-12-31T02:38:46.431Z,99748.72
2022-12-31T02:43:47.842Z,99735.28
2022-12-31T02:48:57.551Z,99728.97
2022-12-31T02:54:21.693Z,99740.00
2022-12-31T03:00:11.863Z,99746.81
2022-12-31T03:05:15.911Z,99734.88
2022-12-31T03:10:17.467Z,99744.59
2022-12-31T03:15:22.639Z,99750.41
2022-12-31T03:20:49.404Z,99747.25
2022-12-31T03:25:51.179Z,99730.31
2022-12-31T03:31:03.160Z,99741.53
2022-12-31T03:36:07.323Z,99756.84
2022-12-31T03:41:10.838Z,99769.25
2022-12-31T03:46:12.228Z,99766.06
2022-12-31T03:51:13.631Z,99776.47
2022-12-31T03:56:14.955Z,99777.31
2022-12-31T04:01:16.408Z,99783.56
2022-12-31T04:06:17.872Z,99788.84
2022-12-31T04:11:21.131Z,99797.31
2022-12-31T04:16:22.705Z,99789.56
2022-12-31T04:21:25.256Z,99791.47
2022-12-31T04:26:28.976Z,99807.03
2022-12-31T04:31:30.298Z,99807.03
2022-12-31T04:36:31.910Z,99818.66
2022-12-31T04:41:33.309Z,99818.50
2022-12-31T04:46:34.757Z,99809.53
2022-12-31T04:51:36.673Z,99826.19
2022-12-31T04:56:38.100Z,99827.56
2022-12-31T05:01:39.603Z,99830.88
2022-12-31T05:06:41.048Z,99831.22
2022-12-31T05:11:42.411Z,99841.41
2022-12-31T05:16:43.784Z,99841.09
2022-12-31T05:22:05.119Z,99845.16
2022-12-31T05:27:06.463Z,99833.13
2022-12-31T05:32:07.788Z,99839.59
2022-12-31T05:37:09.339Z,99838.44
2022-12-31T05:42:10.698Z,99837.75
2022-12-31T05:47:12.058Z,99831.28
2022-12-31T05:52:13.991Z,99825.75
2022-12-31T05:57:15.458Z,99833.91
2022-12-31T06:02:16.839Z,99833.06
2022-12-31T06:07:18.248Z,99866.19
2022-12-31T06:12:19.632Z,99885.72
2022-12-31T06:17:22.323Z,99888.09
2022-12-31T06:22:23.741Z,99906.41
2022-12-31T06:27:25.091Z,99895.56
2022-12-31T06:32:26.407Z,99912.38
2022-12-31T06:37:28.057Z,99924.88
2022-12-31T06:42:33.374Z,99929.88
2022-12-31T06:47:34.779Z,99932.56
2022-12-31T06:52:36.284Z,99942.97
2022-12-31T06:57:37.835Z,99930.34
2022-12-31T07:02:54.200Z,99920.31
2022-12-31T07:08:12.562Z,99925.53
2022-12-31T07:13:31.999Z,99921.50
2022-12-31T07:18:45.206Z,99935.56
2022-12-31T07:23:46.860Z,99939.25
2022-12-31T07:29:05.852Z,99940.06
2022-12-31T07:34:31.121Z,99938.31
2022-12-31T07:39:45.439Z,99947.31
2022-12-31T07:45:07.337Z,99964.19
2022-12-31T07:55:34.513Z,99972.84
2022-12-31T08:00:35.958Z,99984.28
2022-12-31T08:05:50.293Z,99989.56
2022-12-31T08:11:04.763Z,99984.75
2022-12-31T08:16:11.183Z,99980.72
2022-12-31T08:21:50.031Z,99987.47
2022-12-31T08:27:06.303Z,100021.75
2022-12-31T08:32:23.851Z,100024.81
2022-12-31T08:37:25.125Z,100021.63
2022-12-31T08:42:42.176Z,100015.75
2022-12-31T08:48:17.293Z,100013.50
2022-12-31T08:53:19.038Z,100001.28
2022-12-31T08:58:41.725Z,100003.00
2022-12-31T09:04:06.164Z,100011.03
2022-12-31T09:09:16.638Z,100001.22
2022-12-31T09:14:28.583Z,100003.72
2022-12-31T09:19:29.963Z,100008.69
2022-12-31T09:24:31.610Z,100016.59
2022-12-31T09:29:46.083Z,100029.50
2022-12-31T09:34:57.842Z,100047.94
2022-12-31T09:40:16.000Z,100042.63
2022-12-31T09:45:34.852Z,100053.16
2022-12-31T09:50:36.253Z,100045.59
2022-12-31T09:55:51.617Z,100043.81
2022-12-31T10:01:03.855Z,100035.31
2022-12-31T10:06:17.934Z,100066.16
2022-12-31T10:12:03.825Z,100046.00
2022-12-31T10:17:31.632Z,100059.16
2022-12-31T10:23:14.937Z,100076.22
2022-12-31T10:28:56.268Z,100079.53
2022-12-31T10:34:26.865Z,100072.09
2022-12-31T10:39:43.074Z,100085.25
2022-12-31T10:45:15.648Z,100087.81
2022-12-31T10:50:29.098Z,100092.31
2022-12-31T10:56:09.461Z,100085.97
2022-12-31T11:01:28.045Z,100087.00
2022-12-31T11:06:52.552Z,100090.09
2022-12-31T11:12:04.867Z,100104.28
2022-12-31T11:17:43.159Z,100106.56
2022-12-31T11:23:05.920Z,100113.75
2022-12-31T11:28:36.304Z,100123.44
2022-12-31T11:34:10.490Z,100110.09
2022-12-31T11:39:30.950Z,100114.84
2022-12-31T11:44:46.232Z,100108.13
2022-12-31T11:49:47.538Z,100105.53
2022-12-31T11:55:11.071Z,100103.41
2022-12-31T12:00:20.674Z,100084.97
2022-12-31T12:05:25.279Z,100075.75
2022-12-31T12:10:36.594Z,100073.63
2022-12-31T12:15:39.234Z,100069.84
2022-12-31T12:20:44.078Z,100059.31
2022-12-31T12:25:45.462Z,100073.28
2022-12-31T12:30:55.328Z,100061.44
2022-12-31T12:36:11.237Z,100055.28
2022-12-31T12:41:25.301Z,100041.38
2022-12-31T12:46:47.783Z,100048.81
2022-12-31T12:52:26.045Z,100055.31
2022-12-31T12:58:02.583Z,100042.28
2022-12-31T13:03:27.567Z,100059.72
2022-12-31T13:09:01.151Z,100069.63
2022-12-31T13:14:27.171Z,100057.56
2022-12-31T13:19:43.095Z,100046.69
2022-12-31T13:25:07.574Z,100067.16
2022-12-31T13:30:21.209Z,100053.91
2022-12-31T13:35:28.044Z,100029.16
2022-12-31T13:40:56.840Z,100033.88
2022-12-31T13:46:10.755Z,100038.50
2022-12-31T13:51:34.735Z,100021.66
2022-12-31T13:56:38.872Z,100014.81
2022-12-31T14:01:54.800Z,100017.78
2022-12-31T14:07:19.365Z,100030.69
2022-12-31T14:12:40.135Z,100046.81
2022-12-31T14:17:51.793Z,100052.94
2022-12-31T14:23:16.015Z,100061.09
2022-12-31T14:28:23.804Z,100075.88
2022-12-31T14:33:38.899Z,100072.34
2022-12-31T14:38:54.817Z,100083.47
2022-12-31T14:44:32.900Z,100085.50
2022-12-31T14:49:48.044Z,100084.53
2022-12-31T14:55:21.921Z,100089.63
2022-12-31T15:00:36.520Z,100083.56
2022-12-31T15:05:38.513Z,100087.47
2022-12-31T15:11:01.372Z,100101.06
2022-12-31T15:16:23.578Z,100097.28
2022-12-31T15:21:40.361Z,100100.69
2022-12-31T15:26:49.589Z,100097.69
2022-12-31T15:31:51.802Z,100115.69
2022-12-31T15:36:57.256Z,100101.72
2022-12-31T15:47:41.511Z,100092.72
2022-12-31T15:52:47.893Z,100097.56
2022-12-31T15:57:50.518Z,100106.91
2022-12-31T16:02:54.611Z,100106.75
2022-12-31T16:07:58.198Z,100099.38
2022-12-31T16:12:59.884Z,100105.63
2022-12-31T16:18:09.864Z,100108.41
2022-12-31T16:23:25.758Z,100109.56
2022-12-31T16:28:32.524Z,100107.97
2022-12-31T16:33:34.249Z,100103.22
2022-12-31T16:38:37.166Z,100117.28
2022-12-31T16:43:40.137Z,100114.41
2022-12-31T16:48:46.979Z,100127.41
2022-12-31T16:53:49.500Z,100128.91
2022-12-31T16:58:59.183Z,100123.88
2022-12-31T17:04:04.788Z,100116.25
2022-12-31T17:09:31.339Z,100122.28
2022-12-31T17:14:47.996Z,100113.38
2022-12-31T17:19:55.488Z,100124.22
2022-12-31T17:25:02.974Z,100121.94
2022-12-31T17:30:37.607Z,100133.72
2022-12-31T17:35:42.109Z,100124.31
2022-12-31T17:40:53.040Z,100125.75
2022-12-31T17:45:54.614Z,100121.59
2022-12-31T17:50:58.338Z,100117.28
2022-12-31T17:56:03.400Z,100120.00
2022-12-31T18:01:06.374Z,100122.16
2022-12-31T18:06:16.549Z,100125.06
2022-12-31T18:11:22.132Z,100131.38
2022-12-31T18:16:23.675Z,100139.38
2022-12-31T18:21:34.061Z,100136.34
2022-12-31T18:26:35.428Z,100141.38
2022-12-31T18:31:37.361Z,100146.66
2022-12-31T18:36:39.322Z,100161.53
2022-12-31T18:41:49.369Z,100158.41
2022-12-31T18:46:50.801Z,100161.13
2022-12-31T18:51:54.119Z,100160.72
2022-12-31T18:56:57.342Z,100167.63
2022-12-31T19:01:58.840Z,100180.34
2022-12-31T19:07:00.273Z,100181.84
2022-12-31T19:12:01.658Z,100180.19
2022-12-31T19:22:03.322Z,100165.13
2022-12-31T19:27:04.671Z,100178.09
2022-12-31T19:32:06.030Z,100184.13
2022-12-31T19:37:13.631Z,100181.00
2022-12-31T19:42:15.494Z,100181.19
2022-12-31T19:47:16.875Z,100184.53
2022-12-31T19:52:18.189Z,100193.50
2022-12-31T19:57:19.571Z,100178.97
2022-12-31T20:02:21.054Z,100183.00
2022-12-31T20:07:27.121Z,100183.88
2022-12-31T20:12:28.988Z,100192.88
2022-12-31T20:17:30.607Z,100198.34
2022-12-31T20:22:32.199Z,100199.41
2022-12-31T20:27:33.726Z,100208.81
2022-12-31T20:32:35.676Z,100207.38
2022-12-31T20:37:37.052Z,100200.53
2022-12-31T20:42:40.538Z,100217.22
2022-12-31T20:47:41.890Z,100214.09
2022-12-31T20:52:44.147Z,100203.28
2022-12-31T20:57:45.605Z,100203.72
2022-12-31T21:02:56.391Z,100217.88
2022-12-31T21:08:01.918Z,100224.16
2022-12-31T21:13:03.260Z,100224.34
2022-12-31T21:18:04.833Z,100227.50
2022-12-31T21:23:06.257Z,100224.34
2022-12-31T21:28:07.851Z,100231.44
2022-12-31T21:33:09.223Z,100233.28
2022-12-31T21:38:10.562Z,100237.88
2022-12-31T21:43:12.454Z,100233.28
2022-12-31T21:48:21.759Z,100235.38
2022-12-31T21:53:30.447Z,100246.03
2022-12-31T21:58:41.082Z,100241.88
2022-12-31T22:03:43.179Z,100254.19
2022-12-31T22:08:45.957Z,100250.88
2022-12-31T22:13:48.040Z,100255.06
2022-12-31T22:18:50.151Z,100265.28
2022-12-31T22:23:53.513Z,100272.19
2022-12-31T22:28:59.039Z,100284.25
2022-12-31T22:34:01.812Z,100296.38
2022-12-31T22:39:03.237Z,100291.19
2022-12-31T22:44:05.120Z,100296.59
2022-12-31T22:49:06.544Z,100294.09
2022-12-31T22:54:09.412Z,100306.81
2022-12-31T22:59:10.938Z,100304.94
2022-12-31T23:04:12.526Z,100301.41
2022-12-31T23:09:34.758Z,100306.16
2022-12-31T23:14:55.332Z,100311.56
2022-12-31T23:20:15.137Z,100311.16
2022-12-31T23:25:16.693Z,100320.97
2022-12-31T23:30:18.070Z,100316.41
2022-12-31T23:35:19.435Z,100317.44
2022-12-31T23:40:22.029Z,100311.81
2022-12-31T23:45:26.965Z,100335.34
2022-12-31T23:50:31.160Z,100338.69
2022-12-31T23:55:32.857Z,100327.81
